Time;durP1;ratioP1;P1;durP2;ratioP2;P2;SDS_P1;SDS_P2;PMS_P1;PMS_P2;Temp;Humidity;BMP_temperature;BMP_pressure;BME280_temperature;BME280_humidity;BME280_pressure;Samples;Min_cycle;Max_cycle;Signal;HPM_P1;HPM_P2
2024/01/20 00:09:04;;;;;;;28.90;14.50;;;;;;;-1.58;75.57;98920.94;102950;1289;600107;-27
2024/01/20 00:11:32;;;;;;;24.60;13.20;;;;;;;-1.81;76.57;98917.96;105077;1269;61173;-28
2024/01/20 00:13:59;;;;;;;27.30;15.20;;;;;;;-1.81;76.50;98922.85;104825;1270;61206;-28
2024/01/20 00:16:27;;;;;;;28.50;14.50;;;;;;;-2.02;77.67;98922.71;104889;1270;71089;-27
2024/01/20 00:18:55;;;;;;;25.60;14.40;;;;;;;-1.73;76.70;98942.04;105001;1266;73209;-27
2024/01/20 00:21:23;;;;;;;27.90;13.60;;;;;;;-1.48;75.41;98945.29;104813;1266;71713;-28
2024/01/20 00:23:51;;;;;;;25.50;14.30;;;;;;;-1.59;75.55;98942.42;104970;1266;247940;-27
2024/01/20 00:26:18;;;;;;;28.40;14.40;;;;;;;-1.64;76.10;98946.83;105159;1267;61267;-28
2024/01/20 00:36:26;;;;;;;25.20;13.00;;;;;;;-1.53;75.13;98939.48;102640;1294;599403;-28
2024/01/20 00:38:54;;;;;;;24.30;13.30;;;;;;;-1.74;75.71;98947.67;104860;1270;61182;-28
2024/01/20 00:41:22;;;;;;;19.80;11.40;;;;;;;-2.15;76.67;98946.39;104814;1272;61195;-28
2024/01/20 00:43:49;;;;;;;23.10;12.80;;;;;;;-2.19;76.88;98944.99;104906;1270;72028;-28
2024/01/20 00:53:52;;;;;;;22.60;12.00;;;;;;;-1.87;75.99;98962.73;102653;1291;600319;-27
2024/01/20 00:56:20;;;;;;;24.50;11.10;;;;;;;-1.91;75.99;98964.89;104819;1270;61198;-28
2024/01/20 01:06:23;;;;;;;21.40;9.70;;;;;;;-1.64;74.23;98970.68;102668;1292;599526;-27
2024/01/20 01:16:35;;;;;;;17.80;9.50;;;;;;;-1.92;75.52;98981.25;102665;1292;600225;-28
2024/01/20 01:26:39;;;;;;;15.10;7.60;;;;;;;-1.65;73.38;98989.94;102732;1296;599987;-27
2024/01/20 01:29:07;;;;;;;14.30;7.40;;;;;;;-1.61;73.38;98999.18;104862;1267;61126;-28
2024/01/20 01:31:34;;;;;;;13.70;8.70;;;;;;;-1.70;72.33;98999.14;104841;1267;61072;-28
2024/01/20 01:34:02;;;;;;;15.40;8.30;;;;;;;-2.03;73.16;99002.50;104803;1267;70058;-28
2024/01/20 01:44:11;;;;;;;19.70;7.10;;;;;;;-1.38;71.63;99013.76;102737;1292;599374;-27
2024/01/20 01:46:39;;;;;;;15.60;9.10;;;;;;;-1.83;73.02;99017.58;105049;1266;61129;-28
2024/01/20 01:49:07;;;;;;;15.20;7.80;;;;;;;-1.93;73.66;99017.02;104917;1265;61094;-27
2024/01/20 01:51:35;;;;;;;16.80;8.20;;;;;;;-2.00;73.74;99018.08;104882;1266;71342;-28
2024/01/20 01:54:03;;;;;;;13.20;7.60;;;;;;;-2.05;74.68;99025.37;104831;1270;74434;-28
2024/01/20 02:04:10;;;;;;;16.10;7.80;;;;;;;-1.47;72.81;99018.49;102674;1294;599340;-28
2024/01/20 02:06:38;;;;;;;11.30;7.30;;;;;;;-1.69;73.25;99024.80;104826;1266;60998;-28
2024/01/20 02:09:05;;;;;;;12.40;7.90;;;;;;;-1.84;73.84;99023.20;104850;1267;61185;-27
2024/01/20 02:11:33;;;;;;;22.90;9.10;;;;;;;-2.05;74.83;99020.27;104794;1269;72257;-28
2024/01/20 02:21:38;;;;;;;17.60;8.20;;;;;;;-1.17;71.87;99032.33;102657;1292;600187;-27
2024/01/20 02:24:05;;;;;;;18.40;8.20;;;;;;;-1.36;72.05;99036.68;108637;1266;58790;-26
2024/01/20 02:26:33;;;;;;;20.10;10.00;;;;;;;-1.82;73.49;99033.53;108681;1266;58852;-26
2024/01/20 02:29:00;;;;;;;13.70;7.70;;;;;;;-2.03;74.55;99038.92;108632;1266;71201;-27
2024/01/20 02:31:28;;;;;;;15.60;8.00;;;;;;;-2.01;73.81;99034.95;108518;1266;74493;-26
2024/01/20 02:33:55;;;;;;;13.20;7.10;;;;;;;-2.01;72.68;99024.75;108617;1266;72667;-26
2024/01/20 02:36:23;;;;;;;10.20;6.30;;;;;;;-1.65;71.39;99041.02;108422;1266;356386;-26
2024/01/20 02:38:51;;;;;;;24.50;9.70;;;;;;;-1.68;71.61;99041.79;108723;1264;60206;-26
2024/01/20 02:41:19;;;;;;;16.70;9.00;;;;;;;-1.85;72.48;99046.39;108675;1266;72282;-26
2024/01/20 02:43:46;;;;;;;20.10;11.60;;;;;;;-1.97;73.21;99044.70;108742;1264;73986;-27
2024/01/20 02:46:14;;;;;;;19.50;9.20;;;;;;;-2.08;73.44;99052.53;108653;1266;72347;-26
2024/01/20 02:48:41;;;;;;;17.90;10.30;;;;;;;-2.10;73.78;99055.15;108760;1264;58848;-26
2024/01/20 02:51:09;;;;;;;22.10;10.10;;;;;;;-2.31;73.67;99052.16;108696;1263;60106;-26
2024/01/20 02:53:36;;;;;;;17.20;9.20;;;;;;;-2.01;71.90;99049.75;108737;1264;73138;-26
2024/01/20 02:56:04;;;;;;;16.80;9.20;;;;;;;-1.70;70.19;99054.61;108732;1264;74375;-27
2024/01/20 02:58:31;;;;;;;17.40;9.10;;;;;;;-1.83;70.15;99061.31;108687;1264;72662;-26
2024/01/20 03:01:00;;;;;;;16.00;7.80;;;;;;;-1.94;70.01;99056.37;108713;1264;59264;-26
2024/01/20 03:08:17;;;;;;;13.60;7.80;;;;;;;-2.08;70.51;99070.03;108831;1264;72941;-26
2024/01/20 03:10:45;;;;;;;17.60;8.90;;;;;;;-2.24;70.94;99074.05;108725;1264;74313;-26
2024/01/20 03:13:13;;;;;;;19.70;10.60;;;;;;;-2.26;71.19;99079.39;108896;1260;71680;-27
2024/01/20 03:15:40;;;;;;;16.50;7.80;;;;;;;-1.95;69.99;99079.67;108859;1267;59251;-26
2024/01/20 03:18:08;;;;;;;17.00;8.10;;;;;;;-1.68;68.65;99078.57;108953;1260;58776;-26
2024/01/20 03:20:35;;;;;;;15.40;8.10;;;;;;;-1.89;68.68;99079.36;108914;1260;73035;-26
2024/01/20 03:23:03;;;;;;;17.50;8.50;;;;;;;-1.84;69.09;99098.60;108911;1261;73050;-26
2024/01/20 03:25:30;;;;;;;15.90;8.00;;;;;;;-1.88;68.96;99094.46;108914;1260;72726;-27
2024/01/20 03:27:58;;;;;;;13.90;7.10;;;;;;;-2.21;70.31;99096.44;108889;1261;58847;-26
2024/01/20 03:30:25;;;;;;;17.60;8.90;;;;;;;-2.13;70.34;99106.09;108841;1263;60183;-26
2024/01/20 03:32:53;;;;;;;16.90;8.50;;;;;;;-2.43;70.91;99095.86;108819;1260;73045;-26
2024/01/20 03:35:22;;;;;;;16.80;7.80;;;;;;;-2.32;71.04;99102.87;108880;1260;74286;-26
2024/01/20 03:37:50;;;;;;;16.50;8.80;;;;;;;-1.93;70.31;99102.10;108856;1260;72645;-27
2024/01/20 03:40:17;;;;;;;20.00;9.00;;;;;;;-1.70;69.22;99107.39;108780;1263;58833;-26
2024/01/20 03:42:44;;;;;;;17.70;9.10;;;;;;;-1.59;68.83;99111.48;108913;1260;60017;-26
2024/01/20 03:45:12;;;;;;;18.00;9.00;;;;;;;-1.76;69.61;99120.67;108888;1261;73078;-26
2024/01/20 03:47:39;;;;;;;18.70;10.10;;;;;;;-2.05;70.81;99124.06;108915;1260;72786;-26
2024/01/20 03:50:09;;;;;;;18.10;10.80;;;;;;;-2.12;71.35;99126.46;108809;1263;70206;-26
2024/01/20 03:52:37;;;;;;;19.20;10.30;;;;;;;-2.26;71.94;99128.89;108714;1261;59250;-27
2024/01/20 03:55:05;;;;;;;13.80;7.00;;;;;;;-2.39;72.64;99130.45;108797;1265;58738;-26
2024/01/20 03:57:33;;;;;;;18.30;9.70;;;;;;;-2.32;72.46;99130.60;108799;1260;73078;-26
2024/01/20 04:00:00;;;;;;;15.20;9.10;;;;;;;-1.97;71.88;99133.89;109449;1259;74323;-26
2024/01/20 04:02:30;;;;;;;17.00;9.20;;;;;;;-2.05;71.86;99140.06;109433;1253;72700;-26
2024/01/20 04:04:58;;;;;;;20.70;9.30;;;;;;;-1.80;71.17;99143.59;109261;1252;59247;-27
2024/01/20 04:07:25;;;;;;;17.40;8.60;;;;;;;-1.83;71.50;99152.37;109357;1253;59995;-26
2024/01/20 04:09:53;;;;;;;14.30;8.30;;;;;;;-2.06;72.16;99155.91;109424;1252;73070;-26
2024/01/20 04:12:20;;;;;;;21.10;11.60;;;;;;;-2.18;72.90;99157.25;109300;1253;74299;-26
2024/01/20 04:14:48;;;;;;;16.10;9.90;;;;;;;-2.42;73.29;99155.00;109408;1254;72752;-26
2024/01/20 04:17:15;;;;;;;16.90;9.50;;;;;;;-2.67;74.72;99166.00;109264;1254;60884;-26
2024/01/20 04:19:43;;;;;;;20.30;10.30;;;;;;;-2.20;73.36;99161.90;109423;1254;60122;-27
2024/01/20 04:22:10;;;;;;;19.30;10.20;;;;;;;-2.15;72.59;99166.36;109279;1254;73042;-26
2024/01/20 04:24:38;;;;;;;19.40;9.90;;;;;;;-2.32;73.34;99166.30;109460;1254;74313;-26
2024/01/20 04:27:05;;;;;;;21.70;9.70;;;;;;;-2.46;73.65;99174.98;109434;1254;72618;-26
2024/01/20 04:29:32;;;;;;;20.40;8.90;;;;;;;-2.34;73.28;99188.12;109347;1253;58786;-26
2024/01/20 04:32:00;;;;;;;15.90;8.30;;;;;;;-2.37;73.53;99191.59;109404;1254;58774;-27
2024/01/20 04:34:27;;;;;;;14.10;6.80;;;;;;;-2.27;73.82;99190.66;109225;1256;73006;-26
2024/01/20 04:36:55;;;;;;;12.30;8.00;;;;;;;-2.01;71.83;99188.77;109257;1253;74263;-26
2024/01/20 04:39:22;;;;;;;13.00;7.90;;;;;;;-1.93;71.06;99185.16;109218;1260;72651;-26
2024/01/20 04:41:50;;;;;;;12.70;6.70;;;;;;;-1.64;69.82;99186.04;109354;1254;58785;-26
2024/01/20 04:44:17;;;;;;;15.10;9.20;;;;;;;-1.89;70.47;99187.60;109384;1254;58784;-26
2024/01/20 04:46:44;;;;;;;17.30;9.80;;;;;;;-2.21;70.70;99183.02;109365;1254;71786;-26
2024/01/20 04:49:12;;;;;;;15.70;8.30;;;;;;;-2.51;71.21;99186.53;109348;1254;74297;-26
2024/01/20 04:51:39;;;;;;;15.30;8.20;;;;;;;-2.35;71.19;99190.01;109345;1254;72640;-26
2024/01/20 04:54:07;;;;;;;15.00;7.20;;;;;;;-2.26;70.89;99194.05;109216;1253;59285;-26
2024/01/20 04:56:34;;;;;;;13.00;8.30;;;;;;;-2.51;70.94;99190.25;109247;1254;58728;-26
2024/01/20 04:59:02;;;;;;;11.00;6.40;;;;;;;-2.20;70.67;99201.00;109338;1254;73022;-26
2024/01/20 05:01:29;;;;;;;10.90;5.40;;;;;;;-1.73;68.14;99200.41;109413;1254;74349;-26
2024/01/20 05:03:58;;;;;;;10.30;6.00;;;;;;;-1.64;67.03;99200.34;109347;1254;72649;-26
2024/01/20 05:06:26;;;;;;;12.50;6.70;;;;;;;-1.69;66.95;99198.78;109349;1254;59494;-27
2024/01/20 05:08:53;;;;;;;10.60;6.00;;;;;;;-1.89;66.97;99202.38;109253;1254;60017;-26
2024/01/20 05:11:21;;;;;;;14.00;6.80;;;;;;;-1.97;67.73;99211.45;109245;1254;73096;-26
2024/01/20 05:13:48;;;;;;;8.10;5.50;;;;;;;-2.11;68.15;99219.85;109374;1254;73207;-26
2024/01/20 05:16:16;;;;;;;10.10;6.10;;;;;;;-2.18;68.53;99224.45;109340;1254;72717;-27
2024/01/20 05:18:43;;;;;;;9.00;5.30;;;;;;;-2.44;68.51;99214.58;109340;1254;59234;-26
2024/01/20 05:21:14;;;;;;;10.80;5.40;;;;;;;-2.46;68.65;99221.23;109370;1254;60029;-26
2024/01/20 05:23:42;;;;;;;12.70;5.90;;;;;;;-2.49;68.56;99218.76;109215;1254;73080;-26
2024/01/20 05:26:09;;;;;;;10.00;5.50;;;;;;;-2.53;68.59;99220.57;109348;1253;73087;-27
2024/01/20 05:28:37;;;;;;;13.90;4.00;;;;;;;-2.54;68.54;99227.23;109330;1254;72623;-26
2024/01/20 05:31:04;;;;;;;12.30;3.90;;;;;;;-1.76;66.82;99235.73;109329;1257;59219;-26
2024/01/20 05:33:31;;;;;;;12.20;5.40;;;;;;;-1.59;65.45;99240.05;109382;1254;60026;-26
2024/01/20 05:35:59;;;;;;;8.30;5.00;;;;;;;-1.62;65.65;99247.93;109338;1254;71753;-26
2024/01/20 05:38:26;;;;;;;7.50;4.80;;;;;;;-1.68;65.21;99252.20;109296;1254;73201;-26
2024/01/20 05:40:55;;;;;;;7.10;4.40;;;;;;;-1.76;65.74;99252.94;109215;1254;71453;-26
2024/01/20 05:43:23;;;;;;;15.50;5.10;;;;;;;-1.64;65.96;99256.17;109100;1254;59280;-26
2024/01/20 05:45:50;;;;;;;7.90;4.30;;;;;;;-1.70;66.24;99254.10;109182;1257;58813;-26
2024/01/20 05:48:18;;;;;;;10.60;5.60;;;;;;;-2.01;66.98;99256.33;109379;1254;71311;-26
2024/01/20 05:50:45;;;;;;;10.00;4.70;;;;;;;-2.06;67.44;99262.41;109364;1254;74327;-26
2024/01/20 05:53:15;;;;;;;9.00;4.30;;;;;;;-2.06;67.48;99267.35;109328;1254;71395;-26
2024/01/20 05:55:42;;;;;;;11.10;5.60;;;;;;;-2.02;67.43;99271.66;109353;1255;58809;-26
2024/01/20 05:58:10;;;;;;;9.70;6.10;;;;;;;-2.13;67.71;99276.52;109398;1254;60012;-26
2024/01/20 06:00:37;;;;;;;11.20;5.90;;;;;;;-2.11;67.98;99274.79;109342;1254;72151;-26
2024/01/20 06:03:05;;;;;;;10.50;5.00;;;;;;;-1.72;67.26;99281.58;109366;1254;73015;-26
2024/01/20 06:05:32;;;;;;;9.80;5.20;;;;;;;-1.59;66.19;99284.98;109332;1254;71375;-26
2024/01/20 06:08:00;;;;;;;8.00;4.40;;;;;;;-1.32;64.21;99289.00;109334;1254;58809;-26
2024/01/20 06:10:27;;;;;;;8.10;4.10;;;;;;;-1.79;64.68;99296.07;109370;1254;60025;-26
2024/01/20 06:12:55;;;;;;;6.80;4.10;;;;;;;-1.89;64.29;99296.52;109356;1254;72995;-26
2024/01/20 06:15:22;;;;;;;7.70;3.70;;;;;;;-2.03;64.22;99297.55;109368;1254;73557;-26
2024/01/20 06:17:50;;;;;;;8.30;3.90;;;;;;;-1.82;63.69;99301.43;109338;1254;71414;-26
2024/01/20 06:20:17;;;;;;;9.50;4.60;;;;;;;-1.97;64.10;99303.36;109279;1254;59695;-27
2024/01/20 06:22:45;;;;;;;7.00;3.00;;;;;;;-1.90;63.42;99307.09;109203;1254;60088;-26
2024/01/20 06:25:13;;;;;;;7.20;3.60;;;;;;;-1.93;63.16;99304.79;109342;1254;72816;-26
2024/01/20 06:27:40;;;;;;;4.80;2.60;;;;;;;-2.02;63.74;99306.88;109230;1254;73022;-26
2024/01/20 06:30:08;;;;;;;10.00;4.00;;;;;;;-2.01;63.06;99306.86;109128;1254;72648;-26
2024/01/20 06:32:36;;;;;;;3.80;2.10;;;;;;;-2.11;63.42;99308.47;109237;1254;58777;-26
2024/01/20 06:35:03;;;;;;;7.20;3.70;;;;;;;-2.16;63.42;99309.63;109236;1254;58725;-26
2024/01/20 06:37:31;;;;;;;6.60;3.30;;;;;;;-2.05;63.64;99305.09;109310;1254;73815;-26
2024/01/20 06:39:58;;;;;;;5.30;3.60;;;;;;;-2.01;63.57;99313.67;109261;1254;74318;-26
2024/01/20 06:42:26;;;;;;;8.20;3.30;;;;;;;-2.06;63.75;99316.02;109259;1254;72712;-26
2024/01/20 06:44:54;;;;;;;5.60;3.30;;;;;;;-2.09;63.27;99315.40;109266;1254;58806;-26
2024/01/20 06:47:25;;;;;;;5.70;3.30;;;;;;;-2.17;62.92;99303.88;109276;1254;58783;-26
2024/01/20 06:49:53;;;;;;;4.60;3.10;;;;;;;-2.07;62.67;99305.64;109272;1254;72436;-26
2024/01/20 06:52:21;;;;;;;8.80;2.80;;;;;;;-2.14;63.18;99314.34;109304;1254;74343;-26
2024/01/20 06:54:48;;;;;;;5.90;3.40;;;;;;;-2.05;63.41;99318.02;109226;1254;72476;-26
2024/01/20 06:57:16;;;;;;;5.20;3.00;;;;;;;-1.94;63.72;99316.05;109258;1254;60042;-26
2024/01/20 06:59:44;;;;;;;6.20;3.60;;;;;;;-1.95;64.07;99314.20;109267;1256;60009;-26
2024/01/20 07:02:11;;;;;;;6.10;2.90;;;;;;;-1.78;63.83;99314.61;109119;1254;72646;-26
2024/01/20 07:04:39;;;;;;;6.70;3.30;;;;;;;-1.04;62.43;99318.15;109140;1254;74320;-26
2024/01/20 07:07:06;;;;;;;5.80;2.60;;;;;;;-0.34;59.91;99315.86;109242;1254;72644;-26
2024/01/20 07:09:38;;;;;;;5.50;3.10;;;;;;;-0.75;59.86;99321.91;109105;1257;58795;-27
2024/01/20 07:12:08;;;;;;;4.10;2.40;;;;;;;-0.74;60.62;99325.48;109175;1254;59977;-26
2024/01/20 07:14:35;;;;;;;3.70;1.70;;;;;;;-1.00;60.52;99332.55;108970;1254;73884;-27
2024/01/20 07:17:05;;;;;;;6.30;3.20;;;;;;;-1.13;61.15;99337.19;109315;1254;73018;-26
2024/01/20 07:19:32;;;;;;;7.30;3.70;;;;;;;-1.28;62.43;99348.33;109167;1257;71400;-27
2024/01/20 07:22:00;;;;;;;7.00;3.70;;;;;;;-1.15;62.75;99346.11;109169;1254;59119;-26
2024/01/20 07:24:29;;;;;;;8.20;3.50;;;;;;;-1.28;62.91;99338.45;109291;1254;58853;-26
2024/01/20 07:26:57;;;;;;;7.10;4.30;;;;;;;-1.28;63.21;99341.02;109235;1255;72637;-27
2024/01/20 07:29:24;;;;;;;8.80;4.20;;;;;;;-1.29;63.39;99338.98;109091;1257;74345;-26
2024/01/20 07:31:52;;;;;;;7.20;3.90;;;;;;;-1.30;63.52;99338.01;109072;1256;72649;-26
2024/01/20 07:34:20;;;;;;;5.70;2.30;;;;;;;-1.36;64.11;99340.20;109092;1256;58908;-26
2024/01/20 07:36:48;;;;;;;5.40;3.70;;;;;;;-1.49;64.07;99350.27;109183;1256;58868;-26
2024/01/20 07:39:16;;;;;;;3.90;2.90;;;;;;;-1.71;63.56;99349.66;109081;1256;73859;-26
2024/01/20 07:42:22;;;;;;;7.00;3.30;;;;;;;-1.72;62.94;99350.54;102685;1292;600332;-27
2024/01/20 07:44:50;;;;;;;5.10;3.10;;;;;;;-1.60;62.18;99351.60;104791;1267;61207;-28
2024/01/20 07:47:17;;;;;;;6.30;3.30;;;;;;;-1.48;62.42;99354.17;104817;1266;61294;-28
2024/01/20 07:49:45;;;;;;;5.60;3.20;;;;;;;-1.60;62.83;99355.15;104826;1269;71210;-28
2024/01/20 07:52:13;;;;;;;7.60;2.90;;;;;;;-1.49;63.36;99357.09;104864;1270;73184;-28
2024/01/20 07:54:40;;;;;;;7.10;4.40;;;;;;;-1.36;62.95;99356.05;104831;1270;71384;-28
2024/01/20 07:57:08;;;;;;;2.80;2.30;;;;;;;-1.42;62.95;99353.16;104917;1263;214740;-28
2024/01/20 07:59:35;;;;;;;6.20;3.50;;;;;;;-1.44;62.50;99360.54;104843;1269;61209;-27
2024/01/20 08:02:03;;;;;;;12.00;4.90;;;;;;;-1.53;63.24;99366.05;105091;1262;70230;-27
2024/01/20 08:04:31;;;;;;;3.80;2.30;;;;;;;-1.37;63.59;99370.54;105294;1263;76705;-28
2024/01/20 08:06:59;;;;;;;3.90;1.90;;;;;;;-0.40;61.63;99369.27;105429;1260;73068;-28
2024/01/20 08:09:27;;;;;;;5.40;3.10;;;;;;;-0.14;59.40;99374.45;105255;1260;60985;-28
2024/01/20 08:11:54;;;;;;;5.20;3.30;;;;;;;-0.42;58.74;99366.63;105252;1260;61171;-28
2024/01/20 08:14:22;;;;;;;11.60;3.60;;;;;;;-0.73;59.28;99370.61;105268;1264;74667;-28
2024/01/20 08:16:49;;;;;;;8.50;3.80;;;;;;;-0.99;60.13;99373.62;105290;1260;74306;-28
2024/01/20 08:19:17;;;;;;;6.10;3.60;;;;;;;-1.24;61.03;99379.05;105213;1261;71423;-28
2024/01/20 08:21:45;;;;;;;3.40;2.70;;;;;;;-1.05;60.12;99375.13;105448;1260;61164;-28
2024/01/20 08:24:13;;;;;;;7.90;4.50;;;;;;;-1.00;60.42;99377.05;105717;1254;61096;-28
2024/01/20 08:26:41;;;;;;;4.60;2.50;;;;;;;-1.10;61.64;99382.43;105544;1256;73029;-28
2024/01/20 08:29:09;;;;;;;5.10;2.30;;;;;;;-0.94;60.90;99384.56;105583;1260;73187;-28
2024/01/20 08:31:37;;;;;;;6.60;3.70;;;;;;;-0.96;60.82;99384.09;105580;1260;72766;-28
2024/01/20 08:34:04;;;;;;;8.30;3.80;;;;;;;-1.10;60.72;99386.35;105590;1260;61150;-28
2024/01/20 08:36:32;;;;;;;8.70;3.90;;;;;;;-1.37;59.43;99382.99;105656;1258;61107;-27
2024/01/20 08:39:00;;;;;;;4.30;2.40;;;;;;;-1.26;59.65;99383.36;105637;1257;71804;-27
2024/01/20 08:49:04;;;;;;;9.70;3.60;;;;;;;-1.26;59.27;99374.52;102670;1298;599069;-27
2024/01/20 08:51:32;;;;;;;6.70;3.20;;;;;;;-1.19;58.57;99384.38;104871;1267;61136;-28
2024/01/20 08:54:00;;;;;;;7.50;2.90;;;;;;;-1.31;58.40;99385.38;104882;1270;61053;-28
2024/01/20 08:56:28;;;;;;;3.80;2.30;;;;;;;-1.30;58.95;99387.23;104929;1273;70944;-29
2024/01/20 08:58:55;;;;;;;5.40;2.90;;;;;;;-1.34;59.26;99387.86;104811;1272;74325;-28
2024/01/20 09:09:04;;;;;;;6.00;4.20;;;;;;;-1.01;59.68;99398.20;102767;1293;599475;-28
2024/01/20 09:19:12;;;;;;;6.10;3.30;;;;;;;-0.94;58.69;99372.27;102678;1295;599615;-27
2024/01/20 09:21:44;;;;;;;6.90;3.20;;;;;;;-0.91;58.65;99363.67;105028;1267;61186;-27
2024/01/20 09:24:12;;;;;;;4.70;3.20;;;;;;;-0.88;58.54;99364.42;104858;1267;61151;-28
2024/01/20 09:26:39;;;;;;;5.30;2.20;;;;;;;-0.52;57.23;99370.19;104802;1266;71976;-28
2024/01/20 09:29:09;;;;;;;8.70;3.70;;;;;;;-0.23;56.38;99363.30;104875;1266;73076;-27
2024/01/20 09:31:37;;;;;;;7.00;2.40;;;;;;;-0.14;55.39;99366.09;104837;1266;72638;-27
2024/01/20 09:34:04;;;;;;;4.00;2.20;;;;;;;0.11;55.28;99366.46;105118;1267;61191;-27
2024/01/20 09:36:32;;;;;;;5.00;2.70;;;;;;;0.47;54.19;99373.64;105153;1263;61182;-28
2024/01/20 09:39:00;;;;;;;5.40;2.70;;;;;;;0.71;53.18;99372.98;105115;1264;71372;-28
2024/01/20 09:41:27;;;;;;;3.90;2.70;;;;;;;0.89;52.99;99374.70;105040;1269;73200;-28
2024/01/20 09:43:55;;;;;;;4.80;3.30;;;;;;;1.06;51.95;99366.09;105080;1270;72861;-28
2024/01/20 09:46:23;;;;;;;6.50;2.80;;;;;;;1.15;51.15;99363.86;105037;1264;61172;-28
2024/01/20 09:48:55;;;;;;;6.00;3.30;;;;;;;0.89;51.27;99354.54;105026;1264;61152;-28
2024/01/20 09:51:28;;;;;;;4.10;2.60;;;;;;;1.05;51.24;99361.46;105036;1270;73003;-28
2024/01/20 10:01:31;;;;;;;5.10;1.80;;;;;;;1.83;49.66;99360.69;102667;1293;598730;-25
2024/01/20 10:11:36;;;;;;;3.70;1.50;;;;;;;1.86;49.45;99336.98;102667;1290;599966;-25
2024/01/20 10:14:04;;;;;;;3.30;1.80;;;;;;;2.10;48.40;99336.70;104846;1269;61347;-26
2024/01/20 10:16:41;;;;;;;2.80;1.50;;;;;;;2.35;48.05;99329.63;104900;1267;61146;-25
2024/01/20 10:19:08;;;;;;;5.20;2.60;;;;;;;2.44;47.74;99325.28;104883;1269;72180;-26
2024/01/20 10:21:43;;;;;;;6.20;2.50;;;;;;;2.70;48.33;99324.70;104918;1270;74149;-27
2024/01/20 10:24:10;;;;;;;5.90;2.80;;;;;;;2.86;48.34;99317.95;104438;1266;363664;-27
2024/01/20 10:26:44;;;;;;;6.50;3.10;;;;;;;3.02;47.62;99308.00;104515;1263;61116;-27
2024/01/20 10:29:12;;;;;;;5.10;2.40;;;;;;;3.11;47.35;99308.78;104749;1269;62329;-27
2024/01/20 10:31:39;;;;;;;6.00;2.50;;;;;;;3.20;47.14;99309.41;104749;1268;74264;-27
2024/01/20 10:34:07;;;;;;;4.90;2.50;;;;;;;3.11;46.69;99308.44;105036;1260;74721;-27
2024/01/20 10:36:35;;;;;;;3.00;2.10;;;;;;;3.19;47.01;99311.48;105216;1262;72431;-27
2024/01/20 10:39:04;;;;;;;5.10;2.30;;;;;;;3.13;46.74;99302.34;105186;1261;61787;-27
2024/01/20 10:41:32;;;;;;;4.30;2.40;;;;;;;3.13;46.25;99306.79;105269;1260;61074;-27
2024/01/20 10:44:01;;;;;;;7.00;2.60;;;;;;;3.09;46.74;99306.99;105082;1267;72994;-27
2024/01/20 10:46:29;;;;;;;5.10;2.70;;;;;;;3.23;47.03;99314.08;105100;1260;73519;-27
2024/01/20 10:48:59;;;;;;;7.40;3.40;;;;;;;3.12;46.40;99318.02;104852;1265;72273;-28
2024/01/20 10:51:27;;;;;;;5.80;3.40;;;;;;;3.17;47.03;99310.20;104999;1267;61153;-27
2024/01/20 10:53:56;;;;;;;4.60;2.90;;;;;;;2.99;46.74;99312.05;105027;1262;61189;-27
2024/01/20 10:56:24;;;;;;;4.90;3.40;;;;;;;2.93;47.03;99309.98;105178;1267;73182;-27
2024/01/20 10:58:57;;;;;;;2.90;2.10;;;;;;;3.00;47.43;99305.33;105126;1260;74268;-27
2024/01/20 11:01:24;;;;;;;3.30;1.90;;;;;;;3.06;47.10;99299.26;105234;1260;73911;-27
2024/01/20 11:03:52;;;;;;;4.60;2.10;;;;;;;2.94;46.76;99296.17;105401;1256;61232;-27
2024/01/20 11:06:21;;;;;;;8.40;2.90;;;;;;;2.50;47.42;99300.55;105513;1258;61155;-28
2024/01/20 11:08:50;;;;;;;2.90;2.10;;;;;;;2.53;48.14;99297.14;105177;1256;74033;-27
2024/01/20 11:11:19;;;;;;;3.40;2.30;;;;;;;2.64;47.72;99295.28;105158;1262;73132;-27
2024/01/20 11:13:47;;;;;;;4.50;2.10;;;;;;;2.62;47.84;99290.27;105092;1265;72496;-27
2024/01/20 11:16:21;;;;;;;5.20;2.40;;;;;;;2.73;47.87;99293.21;105188;1260;61182;-28
2024/01/20 11:18:49;;;;;;;4.90;2.50;;;;;;;2.72;47.68;99281.40;105259;1257;61244;-27
2024/01/20 11:21:19;;;;;;;5.40;2.20;;;;;;;2.72;47.46;99285.00;105454;1256;72068;-27
2024/01/20 11:23:59;;;;;;;4.50;1.60;;;;;;;2.67;47.45;99275.95;105428;1262;74416;-27
2024/01/20 11:26:32;;;;;;;4.00;2.10;;;;;;;2.78;47.73;99275.78;105561;1260;74755;-28
2024/01/20 11:29:00;;;;;;;6.50;2.20;;;;;;;2.71;47.85;99274.59;105092;1265;61174;-27
2024/01/20 11:31:30;;;;;;;6.50;2.70;;;;;;;2.70;47.96;99273.95;105375;1257;61175;-27
2024/01/20 11:34:02;;;;;;;5.60;2.40;;;;;;;2.64;48.11;99265.95;105569;1262;72840;-27
2024/01/20 11:43:06;;;;;;;6.50;2.70;;;;;;;2.73;48.27;99249.80;102689;1291;600470;-27
2024/01/20 11:45:34;;;;;;;3.40;2.50;;;;;;;2.55;48.34;99253.19;104674;1274;61219;-28
2024/01/20 11:48:02;;;;;;;10.20;2.90;;;;;;;2.31;49.36;99245.48;104872;1266;61062;-27
2024/01/20 11:50:30;;;;;;;3.90;2.20;;;;;;;2.40;49.31;99247.85;105255;1263;70977;-27
2024/01/20 11:52:59;;;;;;;6.80;2.30;;;;;;;2.29;49.45;99245.41;105151;1263;76341;-27
2024/01/20 12:03:12;;;;;;;5.00;2.50;;;;;;;2.29;49.99;99244.23;102782;1290;600049;-26
2024/01/20 12:05:39;;;;;;;5.90;2.90;;;;;;;2.35;50.45;99250.98;105121;1264;61112;-27
2024/01/20 12:08:07;;;;;;;6.50;2.90;;;;;;;2.32;50.75;99249.55;104921;1266;61149;-27
2024/01/20 12:10:35;;;;;;;6.10;3.00;;;;;;;2.33;50.71;99248.86;104809;1267;72187;-26
2024/01/20 12:13:03;;;;;;;3.20;2.10;;;;;;;2.21;51.00;99241.50;104830;1267;74287;-27
2024/01/20 12:15:40;;;;;;;5.70;2.00;;;;;;;2.10;50.92;99224.98;104905;1267;71650;-27
2024/01/20 12:18:08;;;;;;;4.10;2.40;;;;;;;1.50;52.30;99223.38;104648;1264;61172;-27
2024/01/20 12:20:36;;;;;;;5.90;3.20;;;;;;;1.16;53.35;99211.96;105658;1260;61186;-30
2024/01/20 12:23:04;;;;;;;5.40;2.80;;;;;;;1.27;53.52;99215.96;105607;1259;72235;-27
2024/01/20 12:25:32;;;;;;;11.20;2.90;;;;;;;1.17;53.88;99219.42;105932;1257;75441;-27
2024/01/20 12:28:01;;;;;;;6.70;3.20;;;;;;;0.90;54.50;99217.73;105870;1252;72329;-27
2024/01/20 12:30:29;;;;;;;5.00;2.80;;;;;;;0.93;55.08;99222.06;105910;1253;61181;-27
2024/01/20 12:32:57;;;;;;;9.80;3.10;;;;;;;0.86;54.87;99218.61;105903;1256;61195;-27
2024/01/20 12:35:25;;;;;;;5.20;2.80;;;;;;;0.96;55.02;99227.29;105829;1254;73039;-27
2024/01/20 12:37:52;;;;;;;6.00;3.50;;;;;;;0.89;55.54;99220.52;105705;1254;75619;-27
2024/01/20 12:40:20;;;;;;;10.00;3.90;;;;;;;0.63;56.37;99207.66;105816;1254;71650;-27
2024/01/20 12:50:15;;;;;;;6.20;4.00;;;;;;;0.37;58.55;99208.81;102738;1291;600254;-25
2024/01/20 12:52:42;;;;;;;7.60;2.70;;;;;;;0.40;58.36;99211.93;104935;1265;61069;-27
2024/01/20 12:55:10;;;;;;;9.70;3.30;;;;;;;0.33;58.86;99215.61;105057;1269;61946;-28
2024/01/20 12:57:38;;;;;;;6.20;2.90;;;;;;;0.28;59.41;99215.62;104829;1267;71193;-28
2024/01/20 13:00:09;;;;;;;6.90;3.60;;;;;;;0.34;58.99;99211.33;104872;1273;74387;-27
2024/01/20 13:02:38;;;;;;;4.70;3.30;;;;;;;0.29;59.16;99216.76;104824;1267;72686;-28
2024/01/20 13:05:06;;;;;;;3.50;2.00;;;;;;;0.14;60.17;99211.16;104883;1264;231067;-28
2024/01/20 13:07:34;;;;;;;6.20;3.40;;;;;;;0.09;60.69;99208.09;105082;1264;61654;-28
2024/01/20 13:10:02;;;;;;;9.70;4.10;;;;;;;0.10;60.75;99206.55;105190;1263;73287;-27
2024/01/20 13:12:31;;;;;;;5.10;3.00;;;;;;;-0.05;61.87;99202.48;105186;1264;75530;-27
2024/01/20 13:14:59;;;;;;;5.70;2.90;;;;;;;0.07;61.33;99210.04;105214;1263;73072;-28
2024/01/20 13:17:27;;;;;;;6.20;3.70;;;;;;;0.13;60.79;99216.66;105139;1268;61205;-27
2024/01/20 13:19:54;;;;;;;19.10;2.60;;;;;;;0.12;61.20;99217.88;105129;1264;60981;-27
2024/01/20 13:22:22;;;;;;;3.70;2.40;;;;;;;0.07;61.45;99213.65;105108;1263;73009;-27
2024/01/20 13:24:50;;;;;;;3.60;2.60;;;;;;;-0.09;62.33;99212.15;105163;1264;74211;-27
2024/01/20 13:27:18;;;;;;;4.50;2.60;;;;;;;0.14;62.53;99217.83;105165;1264;73667;-28
2024/01/20 13:29:45;;;;;;;3.30;2.40;;;;;;;0.82;61.20;99224.21;105125;1264;61253;-27
2024/01/20 13:32:14;;;;;;;7.20;3.60;;;;;;;1.01;60.08;99224.67;104877;1269;62013;-28
2024/01/20 13:34:42;;;;;;;7.90;3.80;;;;;;;1.08;59.74;99227.48;105710;1254;72715;-28
2024/01/20 13:37:10;;;;;;;12.30;5.10;;;;;;;0.93;60.42;99235.42;105713;1258;75302;-28
2024/01/20 13:39:37;;;;;;;7.30;3.40;;;;;;;0.83;60.27;99232.54;105786;1256;72526;-28